Time,TemperatureF,DewpointF,PressureIn,WindDirection,WindDirectionDegrees,WindSpeedMPH,WindSpeedGustMPH,Humidity,HourlyPrecipIn,Conditions,Clouds,dailyrainin,SoftwareType,DateUTC
2013-06-07 00:03:00,67.8,67.0,29.80,ENE,75,0.0,0.0,98,0.02,,,0.00,weatherlink.com 1.10,2013-06-07 04:03:00,
2013-06-07 00:18:00,67.9,67.0,29.80,ENE,75,0.0,0.0,98,0.02,,,0.01,weatherlink.com 1.10,2013-06-07 04:18:00,
2013-06-07 00:33:00,67.9,67.0,29.79,ENE,75,0.0,0.0,98,0.02,,,0.01,weatherlink.com 1.10,2013-06-07 04:33:00,
2013-06-07 00:48:00,67.8,67.0,29.79,ENE,75,0.0,0.0,98,0.02,,,0.02,weatherlink.com 1.10,2013-06-07 04:48:00,
2013-06-07 01:03:00,67.8,67.0,29.78,ENE,75,0.0,0.0,98,0.02,,,0.02,weatherlink.com 1.10,2013-06-07 05:03:00,
2013-06-07 01:18:00,67.8,67.0,29.77,WSW,251,0.0,2.0,98,0.02,,,0.03,weatherlink.com 1.10,2013-06-07 05:18:00,
2013-06-07 01:33:00,67.8,67.0,29.77,West,280,0.0,3.0,98,0.03,,,0.04,weatherlink.com 1.10,2013-06-07 05:33:00,
2013-06-07 01:48:00,67.7,67.0,29.76,West,269,0.0,1.0,98,0.03,,,0.05,weatherlink.com 1.10,2013-06-07 05:48:00,
2013-06-07 02:03:00,67.7,67.0,29.75,West,266,0.0,2.0,98,0.04,,,0.06,weatherlink.com 1.10,2013-06-07 06:03:00,
2013-06-07 02:18:00,67.7,67.0,29.74,West,274,0.0,1.0,98,0.05,,,0.08,weatherlink.com 1.10,2013-06-07 06:18:00,
2013-06-07 02:33:00,67.7,67.0,29.73,West,274,0.0,1.0,98,0.06,,,0.09,weatherlink.com 1.10,2013-06-07 06:33:00,
2013-06-07 02:48:00,67.7,67.0,29.72,WSW,239,0.0,2.0,98,0.06,,,0.11,weatherlink.com 1.10,2013-06-07 06:48:00,
2013-06-07 03:03:00,67.7,67.0,29.71,WSW,243,0.0,3.0,98,0.06,,,0.12,weatherlink.com 1.10,2013-06-07 07:03:00,
2013-06-07 03:18:00,67.7,67.0,29.71,SW,235,0.0,2.0,98,0.04,,,0.13,weatherlink.com 1.10,2013-06-07 07:18:00,
2013-06-07 03:33:00,67.6,67.0,29.71,WNW,287,0.0,3.0,98,0.04,,,0.13,weatherlink.com 1.10,2013-06-07 07:33:00,
2013-06-07 03:48:00,67.6,67.0,29.70,West,262,0.0,3.0,98,0.02,,,0.13,weatherlink.com 1.10,2013-06-07 07:48:00,
2013-06-07 04:03:00,67.6,67.0,29.69,WNW,284,0.0,2.0,98,0.02,,,0.13,weatherlink.com 1.10,2013-06-07 08:03:00,
2013-06-07 04:18:00,67.6,67.0,29.68,WSW,254,0.0,3.0,98,0.01,,,0.13,weatherlink.com 1.10,2013-06-07 08:18:00,
2013-06-07 04:33:00,67.5,67.0,29.68,SSW,199,0.0,3.0,98,0.00,,,0.13,weatherlink.com 1.10,2013-06-07 08:33:00,
2013-06-07 04:48:00,67.4,67.0,29.68,WSW,239,2.0,5.0,98,0.00,,,0.13,weatherlink.com 1.10,2013-06-07 08:48:00,
2013-06-07 05:03:00,67.4,67.0,29.68,West,273,1.0,2.0,98,0.00,,,0.13,weatherlink.com 1.10,2013-06-07 09:03:00,
2013-06-07 05:18:00,67.3,67.0,29.67,WSW,256,0.0,2.0,98,0.00,,,0.13,weatherlink.com 1.10,2013-06-07 09:18:00,
2013-06-07 05:33:00,67.2,67.0,29.67,SW,227,0.0,4.0,98,0.01,,,0.14,weatherlink.com 1.10,2013-06-07 09:33:00,
2013-06-07 05:48:00,67.1,67.0,29.67,West,266,0.0,4.0,98,0.02,,,0.16,weatherlink.com 1.10,2013-06-07 09:48:00,
2013-06-07 06:03:00,67.1,67.0,29.68,WNW,284,0.0,2.0,98,0.03,,,0.17,weatherlink.com 1.10,2013-06-07 10:03:00,
2013-06-07 06:18:00,67.1,67.0,29.68,SW,219,0.0,2.0,98,0.04,,,0.17,weatherlink.com 1.10,2013-06-07 10:18:00,
2013-06-07 06:33:00,67.1,67.0,29.68,WNW,295,1.0,2.0,98,0.03,,,0.18,weatherlink.com 1.10,2013-06-07 10:33:00,
2013-06-07 06:48:00,67.1,67.0,29.68,SW,221,0.0,2.0,98,0.04,,,0.20,weatherlink.com 1.10,2013-06-07 10:48:00,
2013-06-07 07:03:00,67.1,67.0,29.68,SW,236,0.0,3.0,98,0.05,,,0.21,weatherlink.com 1.10,2013-06-07 11:03:00,
2013-06-07 07:18:00,67.2,67.0,29.68,WSW,255,0.0,3.0,98,0.05,,,0.22,weatherlink.com 1.10,2013-06-07 11:18:00,
2013-06-07 07:33:00,67.1,67.0,29.68,SW,231,0.0,2.0,98,0.05,,,0.23,weatherlink.com 1.10,2013-06-07 11:33:00,
2013-06-07 07:48:00,67.1,67.0,29.67,West,259,1.0,4.0,98,0.04,,,0.24,weatherlink.com 1.10,2013-06-07 11:48:00,
2013-06-07 08:03:00,67.1,67.0,29.67,SW,219,0.0,5.0,98,0.04,,,0.25,weatherlink.com 1.10,2013-06-07 12:03:00,
2013-06-07 08:18:00,67.2,67.0,29.68,SW,230,0.0,1.0,98,0.04,,,0.26,weatherlink.com 1.10,2013-06-07 12:18:00,
2013-06-07 08:33:00,67.2,67.0,29.69,SW,231,0.0,2.0,99,0.04,,,0.27,weatherlink.com 1.10,2013-06-07 12:33:00,
2013-06-07 08:48:00,67.6,67.0,29.69,SW,231,0.0,2.0,99,0.03,,,0.28,weatherlink.com 1.10,2013-06-07 12:48:00,
2013-06-07 09:03:00,67.7,67.0,29.69,SW,231,0.0,0.0,99,0.02,,,0.28,weatherlink.com 1.10,2013-06-07 13:03:00,
2013-06-07 09:19:00,68.1,68.0,29.69,WSW,247,1.0,1.0,99,0.02,,,0.28,weatherlink.com 1.10,2013-06-07 13:19:00,
2013-06-07 09:34:00,68.5,68.0,29.70,WSW,247,0.0,1.0,99,0.02,,,0.28,weatherlink.com 1.10,2013-06-07 13:34:00,
2013-06-07 09:49:00,68.8,69.0,29.70,WSW,247,0.0,0.0,99,0.01,,,0.28,weatherlink.com 1.10,2013-06-07 13:49:00,
2013-06-07 10:04:00,69.0,69.0,29.69,SSE,156,0.0,1.0,98,0.01,,,0.28,weatherlink.com 1.10,2013-06-07 14:04:00,
2013-06-07 10:19:00,69.3,69.0,29.69,ESE,120,0.0,3.0,98,0.00,,,0.28,weatherlink.com 1.10,2013-06-07 14:19:00,
2013-06-07 10:34:00,69.7,69.0,29.69,SSE,152,0.0,3.0,98,0.00,,,0.28,weatherlink.com 1.10,2013-06-07 14:34:00,
2013-06-07 10:49:00,70.1,70.0,29.69,South,174,0.0,3.0,98,0.00,,,0.28,weatherlink.com 1.10,2013-06-07 14:49:00,
2013-06-07 11:06:00,70.6,70.0,29.69,SE,144,1.0,5.0,97,0.00,,,0.28,weatherlink.com 1.10,2013-06-07 15:06:00,
2013-06-07 11:19:00,71.2,70.0,29.70,East,87,0.0,3.0,97,0.00,,,0.28,weatherlink.com 1.10,2013-06-07 15:19:00,
2013-06-07 11:34:00,71.5,70.0,29.70,ENE,68,1.0,4.0,96,0.00,,,0.28,weatherlink.com 1.10,2013-06-07 15:34:00,
2013-06-07 11:49:00,71.7,71.0,29.71,East,96,0.0,5.0,96,0.00,,,0.28,weatherlink.com 1.10,2013-06-07 15:49:00,
2013-06-07 12:04:00,72.1,71.0,29.71,SSE,150,0.0,5.0,95,0.00,,,0.28,weatherlink.com 1.10,2013-06-07 16:04:00,
2013-06-07 12:19:00,73.4,72.0,29.71,East,96,1.0,5.0,94,0.00,,,0.28,weatherlink.com 1.10,2013-06-07 16:19:00,
2013-06-07 12:34:00,74.4,72.0,29.72,NNW,342,1.0,6.0,91,0.00,,,0.28,weatherlink.com 1.10,2013-06-07 16:34:00,
2013-06-07 12:49:00,74.3,72.0,29.71,ENE,76,1.0,7.0,91,0.01,,,0.29,weatherlink.com 1.10,2013-06-07 16:49:00,
2013-06-07 13:04:00,75.5,73.0,29.71,ENE,67,5.0,7.0,91,0.01,,,0.29,weatherlink.com 1.10,2013-06-07 17:04:00,
2013-06-07 13:19:00,76.7,73.0,29.71,ENE,76,0.0,10.0,88,0.01,,,0.29,weatherlink.com 1.10,2013-06-07 17:19:00,
2013-06-07 13:34:00,77.5,72.0,29.70,ENE,68,1.0,4.0,84,0.01,,,0.29,weatherlink.com 1.10,2013-06-07 17:34:00,
2013-06-07 13:49:00,78.0,73.0,29.70,ENE,70,0.0,7.0,83,0.00,,,0.29,weatherlink.com 1.10,2013-06-07 17:49:00,
2013-06-07 14:34:00,81.1,73.0,29.70,SE,132,5.0,6.0,75,0.00,,,0.29,weatherlink.com 1.10,2013-06-07 18:34:00,
2013-06-07 14:49:00,82.3,73.0,29.70,ESE,116,2.0,6.0,74,0.00,,,0.29,weatherlink.com 1.10,2013-06-07 18:49:00,
2013-06-07 15:20:00,82.8,72.0,29.69,SE,130,0.0,6.0,70,0.00,,,0.29,weatherlink.com 1.10,2013-06-07 19:20:00,
2013-06-07 15:36:00,82.9,72.0,29.68,SE,126,2.0,7.0,70,0.00,,,0.29,weatherlink.com 1.10,2013-06-07 19:36:00,
2013-06-07 15:50:00,83.9,73.0,29.68,East,81,1.0,7.0,70,0.00,,,0.29,weatherlink.com 1.10,2013-06-07 19:50:00,
2013-06-07 16:20:00,84.1,73.0,29.68,East,86,2.0,7.0,69,0.00,,,0.29,weatherlink.com 1.10,2013-06-07 20:20:00,
2013-06-07 16:50:00,81.9,72.0,29.69,SE,138,2.0,8.0,72,0.00,,,0.29,weatherlink.com 1.10,2013-06-07 20:50:00,
2013-06-07 17:05:00,80.8,72.0,29.69,SSE,167,1.0,3.0,75,0.00,,,0.29,weatherlink.com 1.10,2013-06-07 21:05:00,
2013-06-07 17:20:00,76.3,70.0,29.71,SSE,158,0.0,7.0,81,0.06,,,0.35,weatherlink.com 1.10,2013-06-07 21:20:00,
2013-06-07 17:35:00,73.6,70.0,29.72,ESE,108,0.0,1.0,89,0.06,,,0.35,weatherlink.com 1.10,2013-06-07 21:35:00,
2013-06-07 17:50:00,73.5,72.0,29.70,ESE,117,0.0,2.0,94,0.07,,,0.36,weatherlink.com 1.10,2013-06-07 21:50:00,
2013-06-07 18:05:00,75.3,73.0,29.69,East,90,0.0,2.0,92,0.07,,,0.36,weatherlink.com 1.10,2013-06-07 22:05:00,
2013-06-07 18:20:00,75.7,72.0,29.70,East,82,0.0,3.0,89,0.02,,,0.36,weatherlink.com 1.10,2013-06-07 22:20:00,
2013-06-07 18:50:00,75.0,71.0,29.71,SE,126,0.0,2.0,86,0.00,,,0.36,weatherlink.com 1.10,2013-06-07 22:50:00,
2013-06-07 19:05:00,74.4,70.0,29.72,SE,126,0.0,0.0,85,0.00,,,0.36,weatherlink.com 1.10,2013-06-07 23:05:00,
2013-06-07 19:20:00,74.0,71.0,29.73,SE,126,0.0,0.0,91,0.00,,,0.36,weatherlink.com 1.10,2013-06-07 23:20:00,
2013-06-07 20:05:00,72.4,71.0,29.76,SE,127,1.0,2.0,94,0.01,,,0.37,weatherlink.com 1.10,2013-06-08 00:05:00,
2013-06-07 20:20:00,72.0,70.0,29.77,ENE,76,0.0,3.0,94,0.02,,,0.39,weatherlink.com 1.10,2013-06-08 00:20:00,
2013-06-07 20:35:00,71.5,70.0,29.77,SE,124,1.0,5.0,95,0.02,,,0.39,weatherlink.com 1.10,2013-06-08 00:35:00,
2013-06-07 20:50:00,71.0,69.0,29.77,SW,214,0.0,3.0,94,0.02,,,0.39,weatherlink.com 1.10,2013-06-08 00:50:00,
2013-06-07 21:05:00,70.7,69.0,29.77,WSW,248,0.0,1.0,95,0.02,,,0.39,weatherlink.com 1.10,2013-06-08 01:05:00,
2013-06-07 21:35:00,70.4,69.0,29.79,WSW,248,0.0,0.0,96,0.00,,,0.39,weatherlink.com 1.10,2013-06-08 01:35:00,
2013-06-07 21:50:00,70.2,69.0,29.80,WSW,248,0.0,0.0,96,0.00,,,0.39,weatherlink.com 1.10,2013-06-08 01:50:00,
2013-06-07 22:05:00,70.1,69.0,29.80,WSW,248,0.0,1.0,96,0.01,,,0.39,weatherlink.com 1.10,2013-06-08 02:05:00,
2013-06-07 22:20:00,69.9,69.0,29.80,WSW,248,0.0,0.0,96,0.01,,,0.39,weatherlink.com 1.10,2013-06-08 02:20:00,
2013-06-07 22:35:00,69.7,69.0,29.82,WSW,248,0.0,0.0,97,0.01,,,0.39,weatherlink.com 1.10,2013-06-08 02:35:00,
2013-06-07 22:50:00,69.7,69.0,29.82,WSW,248,0.0,0.0,97,0.01,,,0.39,weatherlink.com 1.10,2013-06-08 02:50:00,
2013-06-07 23:05:00,69.7,69.0,29.83,WSW,248,0.0,0.0,97,0.00,,,0.39,weatherlink.com 1.10,2013-06-08 03:05:00,
2013-06-07 23:20:00,69.8,69.0,29.83,North,354,0.0,0.0,97,0.00,,,0.39,weatherlink.com 1.10,2013-06-08 03:20:00,
2013-06-07 23:35:00,69.7,69.0,29.83,North,354,0.0,0.0,97,0.00,,,0.39,weatherlink.com 1.10,2013-06-08 03:35:00,
2013-06-07 23:50:00,69.5,69.0,29.82,North,354,0.0,0.0,97,0.00,,,0.39,weatherlink.com 1.10,2013-06-08 03:50:00,